sensor_id;sensor_type;location;lat;lon;timestamp;P1;durP1;ratioP1;P2;durP2;ratioP2
3597;SDS011;1813;52.016;8.714;2023-08-07T00:01:43;4.93;;;3.40;;
3597;SDS011;1813;52.016;8.714;2023-08-07T00:04:17;9.30;;;3.50;;
3597;SDS011;1813;52.016;8.714;2023-08-07T00:06:53;9.10;;;3.70;;
3597;SDS011;1813;52.016;8.714;2023-08-07T00:09:27;5.23;;;3.10;;
3597;SDS011;1813;52.016;8.714;2023-08-07T00:12:01;8.37;;;3.70;;
3597;SDS011;1813;52.016;8.714;2023-08-07T00:14:35;6.27;;;3.37;;
3597;SDS011;1813;52.016;8.714;2023-08-07T00:17:08;8.53;;;4.00;;
3597;SDS011;1813;52.016;8.714;2023-08-07T00:19:42;10.53;;;3.80;;
3597;SDS011;1813;52.016;8.714;2023-08-07T00:22:19;9.13;;;3.80;;
3597;SDS011;1813;52.016;8.714;2023-08-07T00:24:52;6.73;;;3.63;;
3597;SDS011;1813;52.016;8.714;2023-08-07T00:27:26;6.80;;;3.73;;
3597;SDS011;1813;52.016;8.714;2023-08-07T00:30:01;5.90;;;3.80;;
3597;SDS011;1813;52.016;8.714;2023-08-07T00:32:35;11.93;;;4.00;;
3597;SDS011;1813;52.016;8.714;2023-08-07T00:35:10;9.23;;;4.30;;
3597;SDS011;1813;52.016;8.714;2023-08-07T00:37:47;5.47;;;3.93;;
3597;SDS011;1813;52.016;8.714;2023-08-07T00:40:20;7.40;;;4.00;;
3597;SDS011;1813;52.016;8.714;2023-08-07T00:42:54;7.83;;;3.83;;
3597;SDS011;1813;52.016;8.714;2023-08-07T00:45:28;7.40;;;3.90;;
3597;SDS011;1813;52.016;8.714;2023-08-07T00:48:02;11.53;;;4.17;;
3597;SDS011;1813;52.016;8.714;2023-08-07T00:50:36;6.33;;;3.50;;
3597;SDS011;1813;52.016;8.714;2023-08-07T00:53:13;9.70;;;4.30;;
3597;SDS011;1813;52.016;8.714;2023-08-07T00:55:47;8.23;;;4.00;;
3597;SDS011;1813;52.016;8.714;2023-08-07T00:58:21;8.90;;;4.20;;
3597;SDS011;1813;52.016;8.714;2023-08-07T01:00:55;7.00;;;4.07;;
3597;SDS011;1813;52.016;8.714;2023-08-07T01:03:30;10.07;;;4.70;;
3597;SDS011;1813;52.016;8.714;2023-08-07T01:06:04;7.50;;;4.43;;
3597;SDS011;1813;52.016;8.714;2023-08-07T01:08:42;7.87;;;4.23;;
3597;SDS011;1813;52.016;8.714;2023-08-07T01:11:21;13.77;;;4.17;;
3597;SDS011;1813;52.016;8.714;2023-08-07T01:14:00;16.77;;;3.97;;
3597;SDS011;1813;52.016;8.714;2023-08-07T01:16:45;9.57;;;4.30;;
3597;SDS011;1813;52.016;8.714;2023-08-07T01:19:24;8.80;;;4.13;;
3597;SDS011;1813;52.016;8.714;2023-08-07T01:22:08;7.80;;;4.27;;
3597;SDS011;1813;52.016;8.714;2023-08-07T01:24:43;9.17;;;4.20;;
3597;SDS011;1813;52.016;8.714;2023-08-07T01:27:28;12.30;;;4.07;;
3597;SDS011;1813;52.016;8.714;2023-08-07T01:30:09;7.87;;;3.73;;
3597;SDS011;1813;52.016;8.714;2023-08-07T01:32:54;8.47;;;4.10;;
3597;SDS011;1813;52.016;8.714;2023-08-07T01:35:35;8.07;;;3.90;;
3597;SDS011;1813;52.016;8.714;2023-08-07T01:38:16;8.40;;;4.30;;
3597;SDS011;1813;52.016;8.714;2023-08-07T01:40:50;10.77;;;4.70;;
3597;SDS011;1813;52.016;8.714;2023-08-07T01:43:25;11.97;;;4.87;;
3597;SDS011;1813;52.016;8.714;2023-08-07T01:46:02;7.50;;;5.17;;
3597;SDS011;1813;52.016;8.714;2023-08-07T01:48:37;10.73;;;5.10;;
3597;SDS011;1813;52.016;8.714;2023-08-07T01:51:10;12.03;;;5.90;;
3597;SDS011;1813;52.016;8.714;2023-08-07T01:53:47;10.13;;;5.40;;
3597;SDS011;1813;52.016;8.714;2023-08-07T01:56:21;9.80;;;5.83;;
3597;SDS011;1813;52.016;8.714;2023-08-07T01:58:54;16.33;;;6.53;;
3597;SDS011;1813;52.016;8.714;2023-08-07T02:01:28;9.93;;;5.90;;
3597;SDS011;1813;52.016;8.714;2023-08-07T02:04:02;9.63;;;5.93;;
3597;SDS011;1813;52.016;8.714;2023-08-07T02:06:37;10.50;;;5.90;;
3597;SDS011;1813;52.016;8.714;2023-08-07T02:09:13;7.80;;;5.53;;
3597;SDS011;1813;52.016;8.714;2023-08-07T02:11:47;14.33;;;6.90;;
3597;SDS011;1813;52.016;8.714;2023-08-07T02:14:21;14.93;;;5.80;;
3597;SDS011;1813;52.016;8.714;2023-08-07T02:16:55;15.60;;;6.37;;
3597;SDS011;1813;52.016;8.714;2023-08-07T02:19:29;16.77;;;6.30;;
3597;SDS011;1813;52.016;8.714;2023-08-07T02:22:03;11.50;;;6.27;;
3597;SDS011;1813;52.016;8.714;2023-08-07T02:24:40;12.17;;;6.67;;
3597;SDS011;1813;52.016;8.714;2023-08-07T02:27:14;14.40;;;6.17;;
3597;SDS011;1813;52.016;8.714;2023-08-07T02:29:47;12.50;;;5.87;;
3597;SDS011;1813;52.016;8.714;2023-08-07T02:32:21;16.20;;;6.30;;
3597;SDS011;1813;52.016;8.714;2023-08-07T02:34:58;10.90;;;5.93;;
3597;SDS011;1813;52.016;8.714;2023-08-07T02:37:32;18.80;;;6.07;;
3597;SDS011;1813;52.016;8.714;2023-08-07T02:40:09;10.57;;;6.07;;
3597;SDS011;1813;52.016;8.714;2023-08-07T02:42:46;14.93;;;5.80;;
3597;SDS011;1813;52.016;8.714;2023-08-07T02:45:20;13.80;;;6.20;;
3597;SDS011;1813;52.016;8.714;2023-08-07T02:47:54;13.30;;;5.80;;
3597;SDS011;1813;52.016;8.714;2023-08-07T02:50:28;9.20;;;5.57;;
3597;SDS011;1813;52.016;8.714;2023-08-07T02:53:03;10.83;;;5.70;;
3597;SDS011;1813;52.016;8.714;2023-08-07T02:55:42;8.67;;;5.30;;
3597;SDS011;1813;52.016;8.714;2023-08-07T02:58:16;8.10;;;5.67;;
3597;SDS011;1813;52.016;8.714;2023-08-07T03:00:50;12.50;;;6.10;;
3597;SDS011;1813;52.016;8.714;2023-08-07T03:03:24;10.33;;;6.00;;
3597;SDS011;1813;52.016;8.714;2023-08-07T03:05:58;9.60;;;5.73;;
3597;SDS011;1813;52.016;8.714;2023-08-07T03:08:32;18.10;;;6.27;;
3597;SDS011;1813;52.016;8.714;2023-08-07T03:11:08;11.30;;;5.83;;
3597;SDS011;1813;52.016;8.714;2023-08-07T03:13:42;11.03;;;5.53;;
3597;SDS011;1813;52.016;8.714;2023-08-07T03:16:16;13.17;;;6.10;;
3597;SDS011;1813;52.016;8.714;2023-08-07T03:18:50;9.77;;;5.97;;
3597;SDS011;1813;52.016;8.714;2023-08-07T03:21:24;12.87;;;5.80;;
3597;SDS011;1813;52.016;8.714;2023-08-07T03:23:59;10.03;;;5.73;;
3597;SDS011;1813;52.016;8.714;2023-08-07T03:26:35;14.47;;;6.13;;
3597;SDS011;1813;52.016;8.714;2023-08-07T03:29:09;14.90;;;6.77;;
3597;SDS011;1813;52.016;8.714;2023-08-07T03:31:43;10.37;;;6.23;;
3597;SDS011;1813;52.016;8.714;2023-08-07T03:34:17;11.77;;;6.23;;
3597;SDS011;1813;52.016;8.714;2023-08-07T03:36:51;13.70;;;7.57;;
3597;SDS011;1813;52.016;8.714;2023-08-07T03:39:25;11.80;;;7.50;;
3597;SDS011;1813;52.016;8.714;2023-08-07T03:42:02;11.63;;;7.80;;
3597;SDS011;1813;52.016;8.714;2023-08-07T03:44:36;11.40;;;7.50;;
3597;SDS011;1813;52.016;8.714;2023-08-07T03:47:10;14.50;;;8.27;;
3597;SDS011;1813;52.016;8.714;2023-08-07T03:49:44;18.13;;;7.83;;
3597;SDS011;1813;52.016;8.714;2023-08-07T03:52:18;14.80;;;7.67;;
3597;SDS011;1813;52.016;8.714;2023-08-07T03:54:52;12.00;;;8.47;;
3597;SDS011;1813;52.016;8.714;2023-08-07T03:57:28;13.90;;;8.70;;
3597;SDS011;1813;52.016;8.714;2023-08-07T04:00:03;12.57;;;8.87;;
3597;SDS011;1813;52.016;8.714;2023-08-07T04:02:47;14.00;;;8.47;;
3597;SDS011;1813;52.016;8.714;2023-08-07T04:05:21;11.90;;;8.83;;
3597;SDS011;1813;52.016;8.714;2023-08-07T04:07:57;15.33;;;8.80;;
3597;SDS011;1813;52.016;8.714;2023-08-07T04:10:31;16.17;;;9.13;;
3597;SDS011;1813;52.016;8.714;2023-08-07T04:13:07;15.40;;;8.00;;
3597;SDS011;1813;52.016;8.714;2023-08-07T04:15:41;16.40;;;8.30;;
3597;SDS011;1813;52.016;8.714;2023-08-07T04:18:15;10.83;;;8.67;;
3597;SDS011;1813;52.016;8.714;2023-08-07T04:20:50;14.50;;;9.03;;
3597;SDS011;1813;52.016;8.714;2023-08-07T04:23:25;16.80;;;8.90;;
3597;SDS011;1813;52.016;8.714;2023-08-07T04:25:59;14.30;;;9.10;;
3597;SDS011;1813;52.016;8.714;2023-08-07T04:28:35;12.50;;;8.50;;
3597;SDS011;1813;52.016;8.714;2023-08-07T04:31:09;13.53;;;9.13;;
3597;SDS011;1813;52.016;8.714;2023-08-07T04:33:43;12.80;;;8.63;;
3597;SDS011;1813;52.016;8.714;2023-08-07T04:36:17;14.87;;;8.70;;
3597;SDS011;1813;52.016;8.714;2023-08-07T04:38:51;16.67;;;8.70;;
3597;SDS011;1813;52.016;8.714;2023-08-07T04:41:25;14.77;;;9.47;;
3597;SDS011;1813;52.016;8.714;2023-08-07T04:44:02;13.00;;;8.83;;
3597;SDS011;1813;52.016;8.714;2023-08-07T04:46:36;14.80;;;9.20;;
3597;SDS011;1813;52.016;8.714;2023-08-07T04:49:09;12.40;;;8.80;;
3597;SDS011;1813;52.016;8.714;2023-08-07T04:51:43;13.20;;;8.37;;
3597;SDS011;1813;52.016;8.714;2023-08-07T04:54:17;13.33;;;8.33;;
3597;SDS011;1813;52.016;8.714;2023-08-07T04:56:51;15.53;;;7.90;;
3597;SDS011;1813;52.016;8.714;2023-08-07T04:59:27;9.80;;;8.50;;
3597;SDS011;1813;52.016;8.714;2023-08-07T05:02:02;10.97;;;8.10;;
3597;SDS011;1813;52.016;8.714;2023-08-07T05:04:36;10.87;;;7.70;;
3597;SDS011;1813;52.016;8.714;2023-08-07T05:07:10;8.30;;;6.80;;
3597;SDS011;1813;52.016;8.714;2023-08-07T05:09:44;10.30;;;6.73;;
3597;SDS011;1813;52.016;8.714;2023-08-07T05:12:20;14.77;;;6.90;;
3597;SDS011;1813;52.016;8.714;2023-08-07T05:14:56;12.10;;;6.90;;
3597;SDS011;1813;52.016;8.714;2023-08-07T05:17:30;11.37;;;7.00;;
3597;SDS011;1813;52.016;8.714;2023-08-07T05:20:05;10.20;;;7.10;;
3597;SDS011;1813;52.016;8.714;2023-08-07T05:22:40;10.63;;;6.70;;
3597;SDS011;1813;52.016;8.714;2023-08-07T05:25:14;7.90;;;5.97;;
3597;SDS011;1813;52.016;8.714;2023-08-07T05:27:48;10.97;;;6.17;;
3597;SDS011;1813;52.016;8.714;2023-08-07T05:30:25;7.57;;;5.83;;
3597;SDS011;1813;52.016;8.714;2023-08-07T05:32:59;6.90;;;6.20;;
3597;SDS011;1813;52.016;8.714;2023-08-07T05:35:32;6.00;;;5.40;;
3597;SDS011;1813;52.016;8.714;2023-08-07T05:38:06;10.10;;;5.47;;
3597;SDS011;1813;52.016;8.714;2023-08-07T05:40:40;6.13;;;5.10;;
3597;SDS011;1813;52.016;8.714;2023-08-07T05:43:14;8.23;;;5.00;;
3597;SDS011;1813;52.016;8.714;2023-08-07T05:45:50;6.77;;;5.27;;
3597;SDS011;1813;52.016;8.714;2023-08-07T05:48:25;5.20;;;4.53;;
3597;SDS011;1813;52.016;8.714;2023-08-07T05:50:59;11.10;;;4.80;;
3597;SDS011;1813;52.016;8.714;2023-08-07T05:53:34;7.53;;;4.87;;
3597;SDS011;1813;52.016;8.714;2023-08-07T05:56:08;5.00;;;4.50;;
3597;SDS011;1813;52.016;8.714;2023-08-07T05:58:42;7.13;;;4.63;;
3597;SDS011;1813;52.016;8.714;2023-08-07T06:01:18;7.03;;;4.77;;
3597;SDS011;1813;52.016;8.714;2023-08-07T06:03:52;6.23;;;4.30;;
3597;SDS011;1813;52.016;8.714;2023-08-07T06:06:26;9.30;;;4.17;;
3597;SDS011;1813;52.016;8.714;2023-08-07T06:09:04;4.40;;;4.00;;
3597;SDS011;1813;52.016;8.714;2023-08-07T06:11:38;4.33;;;3.93;;
3597;SDS011;1813;52.016;8.714;2023-08-07T06:14:12;5.63;;;3.77;;
3597;SDS011;1813;52.016;8.714;2023-08-07T06:16:48;6.53;;;3.60;;
3597;SDS011;1813;52.016;8.714;2023-08-07T06:19:22;6.30;;;3.47;;
3597;SDS011;1813;52.016;8.714;2023-08-07T06:21:57;5.90;;;3.67;;
3597;SDS011;1813;52.016;8.714;2023-08-07T06:24:31;5.53;;;3.10;;
3597;SDS011;1813;52.016;8.714;2023-08-07T06:27:05;6.90;;;3.40;;
3597;SDS011;1813;52.016;8.714;2023-08-07T06:29:39;4.13;;;3.23;;
3597;SDS011;1813;52.016;8.714;2023-08-07T06:32:15;8.57;;;3.13;;
3597;SDS011;1813;52.016;8.714;2023-08-07T06:34:49;6.60;;;2.80;;
3597;SDS011;1813;52.016;8.714;2023-08-07T06:37:23;8.60;;;3.20;;
3597;SDS011;1813;52.016;8.714;2023-08-07T06:39:57;3.53;;;2.70;;
3597;SDS011;1813;52.016;8.714;2023-08-07T06:42:31;7.10;;;3.03;;
3597;SDS011;1813;52.016;8.714;2023-08-07T06:45:06;6.90;;;3.40;;
3597;SDS011;1813;52.016;8.714;2023-08-07T06:47:43;6.10;;;2.60;;
3597;SDS011;1813;52.016;8.714;2023-08-07T06:50:17;6.13;;;3.00;;
3597;SDS011;1813;52.016;8.714;2023-08-07T06:52:51;5.30;;;2.90;;
3597;SDS011;1813;52.016;8.714;2023-08-07T06:55:25;5.03;;;2.90;;
3597;SDS011;1813;52.016;8.714;2023-08-07T06:57:59;5.67;;;3.00;;
3597;SDS011;1813;52.016;8.714;2023-08-07T07:00:33;3.63;;;2.60;;
3597;SDS011;1813;52.016;8.714;2023-08-07T07:03:10;9.17;;;2.90;;
3597;SDS011;1813;52.016;8.714;2023-08-07T07:05:43;6.07;;;2.77;;
3597;SDS011;1813;52.016;8.714;2023-08-07T07:08:17;5.10;;;2.50;;
3597;SDS011;1813;52.016;8.714;2023-08-07T07:10:51;3.60;;;2.30;;
3597;SDS011;1813;52.016;8.714;2023-08-07T07:13:25;5.20;;;2.40;;
3597;SDS011;1813;52.016;8.714;2023-08-07T07:15:59;5.17;;;2.67;;
3597;SDS011;1813;52.016;8.714;2023-08-07T07:18:35;6.10;;;2.83;;
3597;SDS011;1813;52.016;8.714;2023-08-07T07:21:09;3.97;;;2.33;;
3597;SDS011;1813;52.016;8.714;2023-08-07T07:23:43;3.20;;;2.30;;
3597;SDS011;1813;52.016;8.714;2023-08-07T07:26:17;2.53;;;2.33;;
3597;SDS011;1813;52.016;8.714;2023-08-07T07:28:51;2.40;;;2.10;;
3597;SDS011;1813;52.016;8.714;2023-08-07T07:31:24;4.43;;;2.60;;
3597;SDS011;1813;52.016;8.714;2023-08-07T07:34:01;4.63;;;2.63;;
3597;SDS011;1813;52.016;8.714;2023-08-07T07:36:35;5.10;;;2.50;;
3597;SDS011;1813;52.016;8.714;2023-08-07T07:39:09;4.00;;;2.43;;
3597;SDS011;1813;52.016;8.714;2023-08-07T07:41:43;3.20;;;2.30;;
3597;SDS011;1813;52.016;8.714;2023-08-07T07:44:17;4.23;;;2.40;;
3597;SDS011;1813;52.016;8.714;2023-08-07T07:46:51;4.57;;;2.40;;
3597;SDS011;1813;52.016;8.714;2023-08-07T07:49:27;4.23;;;2.50;;
3597;SDS011;1813;52.016;8.714;2023-08-07T07:52:01;3.70;;;2.60;;
3597;SDS011;1813;52.016;8.714;2023-08-07T07:54:35;5.50;;;2.80;;
3597;SDS011;1813;52.016;8.714;2023-08-07T07:57:09;5.77;;;2.70;;
3597;SDS011;1813;52.016;8.714;2023-08-07T07:59:43;3.80;;;2.40;;
3597;SDS011;1813;52.016;8.714;2023-08-07T08:02:17;5.93;;;3.20;;
3597;SDS011;1813;52.016;8.714;2023-08-07T08:04:54;4.40;;;2.30;;
3597;SDS011;1813;52.016;8.714;2023-08-07T08:07:28;3.37;;;2.40;;
3597;SDS011;1813;52.016;8.714;2023-08-07T08:10:02;6.03;;;2.70;;
3597;SDS011;1813;52.016;8.714;2023-08-07T08:12:37;3.43;;;2.70;;
3597;SDS011;1813;52.016;8.714;2023-08-07T08:15:11;5.60;;;2.67;;
3597;SDS011;1813;52.016;8.714;2023-08-07T08:17:45;4.03;;;2.57;;
3597;SDS011;1813;52.016;8.714;2023-08-07T08:20:21;4.30;;;2.70;;
3597;SDS011;1813;52.016;8.714;2023-08-07T08:22:55;6.00;;;2.70;;
3597;SDS011;1813;52.016;8.714;2023-08-07T08:25:29;3.03;;;2.47;;
3597;SDS011;1813;52.016;8.714;2023-08-07T08:28:03;3.87;;;2.43;;
3597;SDS011;1813;52.016;8.714;2023-08-07T08:30:37;4.70;;;2.50;;
3597;SDS011;1813;52.016;8.714;2023-08-07T08:33:11;4.53;;;2.07;;
3597;SDS011;1813;52.016;8.714;2023-08-07T08:35:47;2.33;;;2.13;;
3597;SDS011;1813;52.016;8.714;2023-08-07T08:38:21;3.90;;;2.47;;
3597;SDS011;1813;52.016;8.714;2023-08-07T08:40:59;6.73;;;3.07;;
3597;SDS011;1813;52.016;8.714;2023-08-07T08:43:35;11.60;;;3.50;;
3597;SDS011;1813;52.016;8.714;2023-08-07T08:46:14;6.70;;;3.27;;
3597;SDS011;1813;52.016;8.714;2023-08-07T08:48:50;6.47;;;3.73;;
3597;SDS011;1813;52.016;8.714;2023-08-07T08:51:27;7.10;;;3.33;;
3597;SDS011;1813;52.016;8.714;2023-08-07T08:54:01;7.03;;;3.30;;
3597;SDS011;1813;52.016;8.714;2023-08-07T08:56:36;13.60;;;3.70;;
3597;SDS011;1813;52.016;8.714;2023-08-07T08:59:11;7.47;;;4.07;;
3597;SDS011;1813;52.016;8.714;2023-08-07T09:01:49;5.00;;;3.30;;
3597;SDS011;1813;52.016;8.714;2023-08-07T09:04:24;11.20;;;3.30;;
3597;SDS011;1813;52.016;8.714;2023-08-07T09:07:01;6.87;;;3.50;;
3597;SDS011;1813;52.016;8.714;2023-08-07T09:09:35;6.60;;;3.07;;
3597;SDS011;1813;52.016;8.714;2023-08-07T09:12:12;5.23;;;2.43;;
3597;SDS011;1813;52.016;8.714;2023-08-07T09:14:52;5.23;;;3.03;;
3597;SDS011;1813;52.016;8.714;2023-08-07T09:17:31;5.73;;;3.27;;
3597;SDS011;1813;52.016;8.714;2023-08-07T09:20:09;7.83;;;3.27;;
3597;SDS011;1813;52.016;8.714;2023-08-07T09:22:47;7.13;;;3.20;;
3597;SDS011;1813;52.016;8.714;2023-08-07T09:25:28;8.13;;;3.23;;
3597;SDS011;1813;52.016;8.714;2023-08-07T09:28:02;7.40;;;3.20;;
3597;SDS011;1813;52.016;8.714;2023-08-07T09:30:37;7.90;;;3.13;;
3597;SDS011;1813;52.016;8.714;2023-08-07T09:33:12;7.87;;;2.90;;
3597;SDS011;1813;52.016;8.714;2023-08-07T09:35:46;6.90;;;3.17;;
3597;SDS011;1813;52.016;8.714;2023-08-07T09:38:26;4.40;;;2.60;;
3597;SDS011;1813;52.016;8.714;2023-08-07T09:41:03;4.20;;;2.90;;
3597;SDS011;1813;52.016;8.714;2023-08-07T09:43:37;7.23;;;2.90;;
3597;SDS011;1813;52.016;8.714;2023-08-07T09:46:11;9.23;;;3.63;;
3597;SDS011;1813;52.016;8.714;2023-08-07T09:48:44;6.20;;;3.03;;
3597;SDS011;1813;52.016;8.714;2023-08-07T09:51:18;7.17;;;2.80;;
3597;SDS011;1813;52.016;8.714;2023-08-07T09:53:55;6.43;;;2.50;;
3597;SDS011;1813;52.016;8.714;2023-08-07T09:56:31;2.13;;;1.97;;
3597;SDS011;1813;52.016;8.714;2023-08-07T09:59:04;8.10;;;2.43;;
3597;SDS011;1813;52.016;8.714;2023-08-07T10:01:39;3.57;;;2.30;;
3597;SDS011;1813;52.016;8.714;2023-08-07T10:04:14;2.67;;;2.20;;
3597;SDS011;1813;52.016;8.714;2023-08-07T10:06:48;6.23;;;2.40;;
3597;SDS011;1813;52.016;8.714;2023-08-07T10:09:25;6.03;;;2.53;;
3597;SDS011;1813;52.016;8.714;2023-08-07T10:12:00;7.83;;;2.80;;
3597;SDS011;1813;52.016;8.714;2023-08-07T10:14:35;5.00;;;2.40;;
3597;SDS011;1813;52.016;8.714;2023-08-07T10:17:09;4.57;;;2.53;;
3597;SDS011;1813;52.016;8.714;2023-08-07T10:19:43;2.37;;;2.13;;
3597;SDS011;1813;52.016;8.714;2023-08-07T10:22:18;6.90;;;2.27;;
3597;SDS011;1813;52.016;8.714;2023-08-07T10:24:56;5.70;;;2.13;;
3597;SDS011;1813;52.016;8.714;2023-08-07T10:27:32;5.20;;;2.60;;
3597;SDS011;1813;52.016;8.714;2023-08-07T10:30:09;4.90;;;2.20;;
3597;SDS011;1813;52.016;8.714;2023-08-07T10:32:45;3.33;;;2.00;;
3597;SDS011;1813;52.016;8.714;2023-08-07T10:35:24;4.60;;;2.10;;
3597;SDS011;1813;52.016;8.714;2023-08-07T10:38:05;2.80;;;1.90;;
3597;SDS011;1813;52.016;8.714;2023-08-07T10:43:40;5.50;;;2.30;;
3597;SDS011;1813;52.016;8.714;2023-08-07T10:46:16;4.93;;;2.33;;
3597;SDS011;1813;52.016;8.714;2023-08-07T10:48:53;6.07;;;1.80;;
3597;SDS011;1813;52.016;8.714;2023-08-07T10:51:31;3.50;;;2.00;;
3597;SDS011;1813;52.016;8.714;2023-08-07T10:54:05;3.20;;;1.80;;
3597;SDS011;1813;52.016;8.714;2023-08-07T10:56:42;3.20;;;1.67;;
3597;SDS011;1813;52.016;8.714;2023-08-07T10:59:16;1.97;;;1.50;;
3597;SDS011;1813;52.016;8.714;2023-08-07T11:01:54;2.83;;;1.57;;
3597;SDS011;1813;52.016;8.714;2023-08-07T11:04:28;5.57;;;1.93;;
3597;SDS011;1813;52.016;8.714;2023-08-07T11:07:02;5.63;;;2.37;;
3597;SDS011;1813;52.016;8.714;2023-08-07T11:09:36;3.90;;;1.80;;
3597;SDS011;1813;52.016;8.714;2023-08-07T11:12:13;2.43;;;2.20;;
3597;SDS011;1813;52.016;8.714;2023-08-07T11:14:46;4.40;;;2.00;;
3597;SDS011;1813;52.016;8.714;2023-08-07T11:17:20;4.83;;;2.17;;
3597;SDS011;1813;52.016;8.714;2023-08-07T11:19:57;4.77;;;2.20;;
3597;SDS011;1813;52.016;8.714;2023-08-07T11:22:32;4.90;;;1.93;;
3597;SDS011;1813;52.016;8.714;2023-08-07T11:25:07;5.60;;;1.97;;
3597;SDS011;1813;52.016;8.714;2023-08-07T11:27:48;7.20;;;2.30;;
3597;SDS011;1813;52.016;8.714;2023-08-07T11:30:22;6.67;;;2.70;;
3597;SDS011;1813;52.016;8.714;2023-08-07T11:32:56;4.10;;;2.60;;
3597;SDS011;1813;52.016;8.714;2023-08-07T11:35:30;5.30;;;2.80;;
3597;SDS011;1813;52.016;8.714;2023-08-07T11:38:04;7.40;;;3.30;;
3597;SDS011;1813;52.016;8.714;2023-08-07T11:40:39;8.77;;;3.23;;
3597;SDS011;1813;52.016;8.714;2023-08-07T11:43:16;5.03;;;2.70;;
3597;SDS011;1813;52.016;8.714;2023-08-07T11:45:50;7.13;;;3.23;;
3597;SDS011;1813;52.016;8.714;2023-08-07T11:48:25;7.53;;;3.33;;
3597;SDS011;1813;52.016;8.714;2023-08-07T11:50:59;5.23;;;2.80;;
3597;SDS011;1813;52.016;8.714;2023-08-07T11:53:35;6.60;;;3.20;;
3597;SDS011;1813;52.016;8.714;2023-08-07T11:56:11;6.80;;;3.23;;
3597;SDS011;1813;52.016;8.714;2023-08-07T11:58:50;6.97;;;3.47;;
3597;SDS011;1813;52.016;8.714;2023-08-07T12:01:25;9.20;;;2.93;;
3597;SDS011;1813;52.016;8.714;2023-08-07T12:04:08;9.00;;;3.40;;
3597;SDS011;1813;52.016;8.714;2023-08-07T12:06:52;6.37;;;3.33;;
3597;SDS011;1813;52.016;8.714;2023-08-07T12:09:27;7.70;;;3.53;;
3597;SDS011;1813;52.016;8.714;2023-08-07T12:12:01;5.87;;;3.10;;
3597;SDS011;1813;52.016;8.714;2023-08-07T12:14:38;6.63;;;3.10;;
3597;SDS011;1813;52.016;8.714;2023-08-07T12:17:12;5.90;;;2.80;;
3597;SDS011;1813;52.016;8.714;2023-08-07T12:19:46;8.50;;;3.00;;
3597;SDS011;1813;52.016;8.714;2023-08-07T12:22:23;8.00;;;2.93;;
3597;SDS011;1813;52.016;8.714;2023-08-07T12:24:57;4.33;;;2.90;;
3597;SDS011;1813;52.016;8.714;2023-08-07T12:27:30;7.20;;;2.90;;
3597;SDS011;1813;52.016;8.714;2023-08-07T12:30:08;7.10;;;2.83;;
3597;SDS011;1813;52.016;8.714;2023-08-07T12:32:42;4.17;;;2.60;;
3597;SDS011;1813;52.016;8.714;2023-08-07T12:35:16;6.17;;;2.80;;
3597;SDS011;1813;52.016;8.714;2023-08-07T12:37:49;7.60;;;3.13;;
3597;SDS011;1813;52.016;8.714;2023-08-07T12:40:23;6.67;;;2.77;;
3597;SDS011;1813;52.016;8.714;2023-08-07T12:42:58;5.33;;;2.50;;
3597;SDS011;1813;52.016;8.714;2023-08-07T12:45:35;4.13;;;2.87;;
3597;SDS011;1813;52.016;8.714;2023-08-07T12:48:08;9.90;;;2.60;;
3597;SDS011;1813;52.016;8.714;2023-08-07T12:50:42;6.90;;;2.80;;
3597;SDS011;1813;52.016;8.714;2023-08-07T12:53:16;6.83;;;3.03;;
3597;SDS011;1813;52.016;8.714;2023-08-07T12:55:50;4.13;;;2.67;;
3597;SDS011;1813;52.016;8.714;2023-08-07T12:58:25;5.00;;;2.63;;
3597;SDS011;1813;52.016;8.714;2023-08-07T13:01:02;5.50;;;2.70;;
3597;SDS011;1813;52.016;8.714;2023-08-07T13:03:38;8.87;;;2.87;;
3597;SDS011;1813;52.016;8.714;2023-08-07T13:06:12;4.10;;;2.67;;
3597;SDS011;1813;52.016;8.714;2023-08-07T13:08:46;6.33;;;2.77;;
3597;SDS011;1813;52.016;8.714;2023-08-07T13:11:20;3.20;;;2.13;;
3597;SDS011;1813;52.016;8.714;2023-08-07T13:13:54;6.83;;;2.27;;
3597;SDS011;1813;52.016;8.714;2023-08-07T13:16:30;5.80;;;2.97;;
3597;SDS011;1813;52.016;8.714;2023-08-07T13:19:04;3.37;;;2.30;;
3597;SDS011;1813;52.016;8.714;2023-08-07T13:21:37;5.80;;;2.50;;
3597;SDS011;1813;52.016;8.714;2023-08-07T13:24:11;5.03;;;2.37;;
3597;SDS011;1813;52.016;8.714;2023-08-07T13:26:45;8.57;;;2.77;;
3597;SDS011;1813;52.016;8.714;2023-08-07T13:29:19;4.60;;;2.70;;
3597;SDS011;1813;52.016;8.714;2023-08-07T13:31:56;6.33;;;2.97;;
3597;SDS011;1813;52.016;8.714;2023-08-07T13:34:30;5.33;;;2.83;;
3597;SDS011;1813;52.016;8.714;2023-08-07T13:37:04;5.03;;;2.50;;
3597;SDS011;1813;52.016;8.714;2023-08-07T13:39:39;9.30;;;2.87;;
3597;SDS011;1813;52.016;8.714;2023-08-07T13:42:13;8.90;;;2.60;;
3597;SDS011;1813;52.016;8.714;2023-08-07T13:44:47;7.93;;;2.80;;
3597;SDS011;1813;52.016;8.714;2023-08-07T13:47:23;8.60;;;2.87;;
3597;SDS011;1813;52.016;8.714;2023-08-07T13:49:57;5.00;;;2.73;;
3597;SDS011;1813;52.016;8.714;2023-08-07T13:52:32;7.37;;;2.80;;
3597;SDS011;1813;52.016;8.714;2023-08-07T13:55:06;3.80;;;2.37;;
3597;SDS011;1813;52.016;8.714;2023-08-07T13:57:42;6.40;;;2.50;;
3597;SDS011;1813;52.016;8.714;2023-08-07T14:00:16;11.20;;;2.80;;
3597;SDS011;1813;52.016;8.714;2023-08-07T14:02:52;6.93;;;2.57;;
3597;SDS011;1813;52.016;8.714;2023-08-07T14:05:26;10.60;;;2.90;;
3597;SDS011;1813;52.016;8.714;2023-08-07T14:08:00;4.07;;;2.40;;
3597;SDS011;1813;52.016;8.714;2023-08-07T14:10:34;7.30;;;2.80;;
3597;SDS011;1813;52.016;8.714;2023-08-07T14:13:11;5.27;;;2.70;;
3597;SDS011;1813;52.016;8.714;2023-08-07T14:15:44;4.20;;;2.30;;
3597;SDS011;1813;52.016;8.714;2023-08-07T14:18:21;2.63;;;2.40;;
3597;SDS011;1813;52.016;8.714;2023-08-07T14:20:55;8.03;;;3.10;;
3597;SDS011;1813;52.016;8.714;2023-08-07T14:23:28;3.37;;;2.27;;
3597;SDS011;1813;52.016;8.714;2023-08-07T14:26:02;4.00;;;2.43;;
3597;SDS011;1813;52.016;8.714;2023-08-07T14:28:36;6.07;;;2.57;;
3597;SDS011;1813;52.016;8.714;2023-08-07T14:31:10;5.50;;;2.40;;
3597;SDS011;1813;52.016;8.714;2023-08-07T14:33:46;3.43;;;2.10;;
3597;SDS011;1813;52.016;8.714;2023-08-07T14:36:20;7.67;;;2.60;;
3597;SDS011;1813;52.016;8.714;2023-08-07T14:38:54;2.40;;;2.20;;
3597;SDS011;1813;52.016;8.714;2023-08-07T14:41:28;3.33;;;2.17;;
3597;SDS011;1813;52.016;8.714;2023-08-07T14:44:02;3.27;;;2.40;;
3597;SDS011;1813;52.016;8.714;2023-08-07T14:46:36;5.07;;;2.70;;
3597;SDS011;1813;52.016;8.714;2023-08-07T14:49:12;3.90;;;2.60;;
3597;SDS011;1813;52.016;8.714;2023-08-07T14:51:46;5.67;;;2.40;;
3597;SDS011;1813;52.016;8.714;2023-08-07T14:54:20;5.40;;;2.40;;
3597;SDS011;1813;52.016;8.714;2023-08-07T14:56:54;3.87;;;2.20;;
3597;SDS011;1813;52.016;8.714;2023-08-07T14:59:29;4.93;;;2.10;;
3597;SDS011;1813;52.016;8.714;2023-08-07T15:02:03;3.40;;;2.30;;
3597;SDS011;1813;52.016;8.714;2023-08-07T15:04:40;8.53;;;2.43;;
3597;SDS011;1813;52.016;8.714;2023-08-07T15:07:14;5.10;;;2.50;;
3597;SDS011;1813;52.016;8.714;2023-08-07T15:09:48;2.90;;;2.20;;
3597;SDS011;1813;52.016;8.714;2023-08-07T15:12:22;5.77;;;2.57;;
3597;SDS011;1813;52.016;8.714;2023-08-07T15:14:56;3.43;;;2.23;;
3597;SDS011;1813;52.016;8.714;2023-08-07T15:17:30;3.43;;;2.30;;
3597;SDS011;1813;52.016;8.714;2023-08-07T15:20:07;5.13;;;2.20;;
3597;SDS011;1813;52.016;8.714;2023-08-07T15:22:42;4.40;;;2.20;;
3597;SDS011;1813;52.016;8.714;2023-08-07T15:25:16;6.23;;;2.70;;
3597;SDS011;1813;52.016;8.714;2023-08-07T15:27:50;3.30;;;2.07;;
3597;SDS011;1813;52.016;8.714;2023-08-07T15:30:26;2.70;;;2.07;;
3597;SDS011;1813;52.016;8.714;2023-08-07T15:33:01;5.83;;;2.50;;
3597;SDS011;1813;52.016;8.714;2023-08-07T15:35:38;3.70;;;2.30;;
3597;SDS011;1813;52.016;8.714;2023-08-07T15:38:12;4.30;;;2.23;;
3597;SDS011;1813;52.016;8.714;2023-08-07T15:40:46;3.13;;;2.20;;
3597;SDS011;1813;52.016;8.714;2023-08-07T15:43:20;5.27;;;2.30;;
3597;SDS011;1813;52.016;8.714;2023-08-07T15:45:53;4.70;;;2.80;;
3597;SDS011;1813;52.016;8.714;2023-08-07T15:48:27;4.70;;;2.30;;
3597;SDS011;1813;52.016;8.714;2023-08-07T15:51:04;4.03;;;2.40;;
3597;SDS011;1813;52.016;8.714;2023-08-07T15:53:38;5.77;;;2.50;;
3597;SDS011;1813;52.016;8.714;2023-08-07T15:56:12;2.80;;;2.20;;
3597;SDS011;1813;52.016;8.714;2023-08-07T15:58:46;2.43;;;2.23;;
3597;SDS011;1813;52.016;8.714;2023-08-07T16:01:21;4.60;;;2.60;;
3597;SDS011;1813;52.016;8.714;2023-08-07T16:03:55;4.53;;;2.40;;